createdAt,value
2023-04-25T00:02:21.189Z,96218.19
2023-04-25T00:04:53.644Z,96211.81
2023-04-25T00:07:24.581Z,96218.78
2023-04-25T00:09:58.032Z,96214.28
2023-04-25T00:12:29.596Z,96218.56
2023-04-25T00:15:01.380Z,96216.94
2023-04-25T00:17:36.178Z,96208.94
2023-04-25T00:20:10.603Z,96207.28
2023-04-25T00:22:41.444Z,96205.63
2023-04-25T00:25:14.966Z,96200.28
2023-04-25T00:27:45.882Z,96191.69
2023-04-25T00:30:18.236Z,96190.88
2023-04-25T00:32:50.286Z,96177.50
2023-04-25T00:35:21.305Z,96168.69
2023-04-25T00:37:52.614Z,96166.84
2023-04-25T00:40:26.073Z,96157.41
2023-04-25T00:42:57.651Z,96160.47
2023-04-25T00:45:32.313Z,96159.25
2023-04-25T00:48:05.318Z,96162.38
2023-04-25T00:50:37.622Z,96150.28
2023-04-25T00:53:08.945Z,96147.19
2023-04-25T00:55:42.409Z,96149.25
2023-04-25T00:58:13.174Z,96134.28
2023-04-25T01:00:45.419Z,96132.25
2023-04-25T01:03:17.612Z,96137.63
2023-04-25T01:05:48.525Z,96127.38
2023-04-25T01:08:19.670Z,96122.66
2023-04-25T01:10:53.114Z,96119.19
2023-04-25T01:13:24.137Z,96109.75
2023-04-25T01:15:55.210Z,96099.53
2023-04-25T01:18:26.102Z,96109.16
2023-04-25T01:20:57.463Z,96103.22
2023-04-25T01:23:31.046Z,96103.63
2023-04-25T01:26:01.968Z,96102.59
2023-04-25T01:28:34.200Z,96099.75
2023-04-25T01:31:05.989Z,96098.50
2023-04-25T01:33:36.843Z,96086.63
2023-04-25T01:36:08.710Z,96080.47
2023-04-25T01:38:42.745Z,96079.22
2023-04-25T01:41:13.934Z,96076.38
2023-04-25T01:43:45.153Z,96077.59
2023-04-25T01:46:16.325Z,96067.56
2023-04-25T01:48:48.228Z,96060.56
2023-04-25T01:51:19.579Z,96062.00
2023-04-25T01:53:53.534Z,96049.31
2023-04-25T01:56:25.061Z,96054.25
2023-04-25T01:58:55.884Z,96046.44
2023-04-25T02:01:56.142Z,96046.66
2023-04-25T02:04:32.674Z,96037.03
2023-04-25T02:07:04.036Z,96033.72
2023-04-25T02:09:49.383Z,96036.81
2023-04-25T02:12:21.910Z,96024.72
2023-04-25T02:14:58.642Z,96023.09
2023-04-25T02:17:38.988Z,96028.22
2023-04-25T02:20:11.468Z,96029.84
2023-04-25T02:22:44.159Z,96034.56
2023-04-25T02:25:17.978Z,96039.91
2023-04-25T02:27:48.743Z,96031.72
2023-04-25T02:30:19.588Z,96031.72
2023-04-25T02:32:50.877Z,96034.59
2023-04-25T02:35:24.748Z,96033.94
2023-04-25T02:37:58.301Z,96032.53
2023-04-25T02:40:31.774Z,96028.84
2023-04-25T02:43:02.389Z,96030.47
2023-04-25T02:45:33.015Z,96042.16
2023-04-25T02:48:03.813Z,96040.72
2023-04-25T02:50:36.395Z,96037.44
2023-04-25T02:53:07.610Z,96053.63
2023-04-25T02:55:47.829Z,96048.91
2023-04-25T02:58:18.932Z,96042.97
2023-04-25T03:00:56.032Z,96045.63
2023-04-25T03:03:27.079Z,96044.84
2023-04-25T03:05:58.087Z,96047.69
2023-04-25T03:08:35.638Z,96059.56
2023-04-25T03:11:09.541Z,96050.34
2023-04-25T03:13:40.400Z,96061.59
2023-04-25T03:16:13.486Z,96059.34
2023-04-25T03:18:44.351Z,96053.81
2023-04-25T03:21:15.131Z,96056.69
2023-04-25T03:23:45.994Z,96058.34
2023-04-25T03:26:19.470Z,96056.09
2023-04-25T03:28:50.589Z,96056.28
2023-04-25T03:31:21.659Z,96058.34
2023-04-25T03:33:53.034Z,96055.69
2023-04-25T03:36:25.783Z,96061.19
2023-04-25T03:38:56.580Z,96051.34
2023-04-25T03:41:31.103Z,96059.34
2023-04-25T03:44:08.036Z,96055.25
2023-04-25T03:46:38.677Z,96053.59
2023-04-25T03:49:09.969Z,96050.94
2023-04-25T03:51:58.484Z,96060.78
2023-04-25T03:54:29.567Z,96058.91
2023-04-25T03:57:13.069Z,96052.78
2023-04-25T03:59:44.359Z,96054.22
2023-04-25T04:02:17.659Z,96048.91
2023-04-25T04:04:49.054Z,96051.97
2023-04-25T04:07:20.439Z,96058.13
2023-04-25T04:09:54.273Z,96051.34
2023-04-25T04:12:34.136Z,96033.75
2023-04-25T04:15:08.218Z,96036.59
2023-04-25T04:17:39.723Z,96041.94
2023-04-25T04:20:12.766Z,96044.00
2023-04-25T04:22:44.690Z,96030.47
2023-04-25T04:25:18.121Z,96035.59
2023-04-25T04:28:20.855Z,96037.84
2023-04-25T04:31:09.410Z,96037.44
2023-04-25T04:33:41.018Z,96038.66
2023-04-25T04:36:12.422Z,96038.28
2023-04-25T04:38:43.668Z,96041.13
2023-04-25T04:41:23.538Z,96027.19
2023-04-25T04:44:16.716Z,96030.06
2023-04-25T04:47:09.568Z,96028.41
2023-04-25T04:49:58.942Z,96021.06
2023-04-25T04:52:46.492Z,96019.38
2023-04-25T04:55:45.161Z,96028.41
2023-04-25T04:58:37.817Z,96028.41
2023-04-25T05:01:31.260Z,96021.63
2023-04-25T05:04:10.332Z,96021.81
2023-04-25T05:06:48.785Z,96026.34
2023-04-25T05:09:42.657Z,96008.28
2023-04-25T05:12:37.397Z,96027.31
2023-04-25T05:15:20.830Z,96026.09
2023-04-25T05:18:03.105Z,96022.97
2023-04-25T05:20:54.773Z,96026.66
2023-04-25T05:23:25.443Z,96029.47
2023-04-25T05:26:19.437Z,96021.19
2023-04-25T05:29:01.428Z,96025.25
2023-04-25T05:32:08.940Z,96020.25
2023-04-25T05:34:43.172Z,96022.47
2023-04-25T05:37:23.792Z,96022.56
2023-04-25T05:40:01.314Z,96023.81
2023-04-25T05:42:55.246Z,96016.84
2023-04-25T05:45:46.273Z,96018.53
2023-04-25T05:48:55.413Z,96018.16
2023-04-25T05:51:48.960Z,96023.88
2023-04-25T05:54:42.743Z,96024.81
2023-04-25T05:57:22.190Z,96013.47
2023-04-25T05:59:53.311Z,96022.00
2023-04-25T06:02:25.423Z,96021.13
2023-04-25T06:04:57.647Z,96022.91
2023-04-25T06:07:31.284Z,96021.19
2023-04-25T06:10:02.223Z,96013.91
2023-04-25T06:12:34.236Z,96006.03
2023-04-25T06:15:13.222Z,95998.69
2023-04-25T06:17:54.914Z,96004.81
2023-04-25T06:20:27.151Z,96004.94
2023-04-25T06:23:04.034Z,96003.00
2023-04-25T06:25:44.721Z,96002.06
2023-04-25T06:28:15.994Z,96000.13
2023-04-25T06:30:48.203Z,96010.75
2023-04-25T06:33:22.810Z,96007.84
2023-04-25T06:35:54.303Z,96020.78
2023-04-25T06:38:32.454Z,96030.03
2023-04-25T06:41:04.050Z,96024.84
2023-04-25T06:43:38.168Z,96024.53
2023-04-25T06:46:15.464Z,96022.91
2023-04-25T06:48:49.609Z,96032.66
2023-04-25T06:51:23.585Z,96027.78
2023-04-25T06:53:58.596Z,96022.78
2023-04-25T06:56:39.163Z,96022.78
2023-04-25T06:59:15.514Z,96026.81
2023-04-25T07:01:47.926Z,96030.09
2023-04-25T07:04:22.566Z,96025.97
2023-04-25T07:06:57.157Z,96030.94
2023-04-25T07:09:38.470Z,96029.63
2023-04-25T07:12:10.368Z,96027.44
2023-04-25T07:14:41.136Z,96009.59
2023-04-25T07:17:13.669Z,96003.88
2023-04-25T07:19:44.941Z,96014.13
2023-04-25T07:22:15.797Z,96015.75
2023-04-25T07:24:50.334Z,96010.34
2023-04-25T07:27:24.128Z,96023.28
2023-04-25T07:30:16.269Z,96005.66
2023-04-25T07:32:47.279Z,96015.09
2023-04-25T07:35:18.039Z,96013.41
2023-04-25T07:37:49.351Z,96018.00
2023-04-25T07:40:26.525Z,96011.78
2023-04-25T07:43:01.983Z,96015.53
2023-04-25T07:45:40.297Z,96012.31
2023-04-25T07:48:11.918Z,96017.25
2023-04-25T07:50:44.774Z,96015.13
2023-04-25T07:53:15.786Z,96016.78
2023-04-25T07:55:58.372Z,96001.88
2023-04-25T07:58:29.103Z,96018.50
2023-04-25T08:01:03.642Z,96015.91
2023-04-25T08:03:34.771Z,96009.28
2023-04-25T08:06:09.074Z,96009.25
2023-04-25T08:08:50.327Z,96008.69
2023-04-25T08:11:27.252Z,96009.28
2023-04-25T08:13:58.378Z,96007.72
2023-04-25T08:16:30.456Z,96015.88
2023-04-25T08:19:01.861Z,96014.00
2023-04-25T08:21:32.753Z,96020.78
2023-04-25T08:24:08.230Z,95991.97
2023-04-25T08:26:44.790Z,96008.53
2023-04-25T08:29:20.154Z,95996.44
2023-04-25T08:31:52.045Z,95987.47
2023-04-25T08:34:22.961Z,95990.41
2023-04-25T08:36:54.717Z,95982.19
2023-04-25T08:39:43.901Z,95981.03
2023-04-25T08:42:32.954Z,95976.53
2023-04-25T08:45:07.277Z,95987.19
2023-04-25T08:47:42.890Z,95988.34
2023-04-25T08:50:13.991Z,95982.19
2023-04-25T08:52:49.610Z,95990.75
2023-04-25T08:55:21.007Z,95991.03
2023-04-25T08:57:59.171Z,95998.97
2023-04-25T09:00:30.316Z,95995.50
2023-04-25T09:03:02.932Z,95989.28
2023-04-25T09:05:38.027Z,95990.16
2023-04-25T09:08:09.835Z,95992.84
2023-04-25T09:10:41.451Z,95983.50
2023-04-25T09:13:17.542Z,95991.41
2023-04-25T09:16:08.187Z,96007.09
2023-04-25T09:19:04.876Z,96044.00
2023-04-25T09:21:38.996Z,96058.63
2023-04-25T09:24:11.743Z,96069.50
2023-04-25T09:26:42.948Z,96066.00
2023-04-25T09:29:16.277Z,96090.47
2023-04-25T09:31:47.664Z,96096.75
2023-04-25T09:34:18.861Z,96095.03
2023-04-25T09:36:58.994Z,96121.19
2023-04-25T09:39:50.619Z,96130.09
2023-04-25T09:42:21.900Z,96123.59
2023-04-25T09:44:57.561Z,96116.44
2023-04-25T09:47:30.676Z,96115.84
2023-04-25T09:50:02.323Z,96108.38
2023-04-25T09:52:34.103Z,96104.78
2023-04-25T09:55:16.524Z,96103.13
2023-04-25T09:57:57.473Z,96096.47
2023-04-25T10:00:31.661Z,96093.16
2023-04-25T10:03:10.483Z,96082.03
2023-04-25T10:05:57.957Z,96080.13
2023-04-25T10:08:30.320Z,96074.09
2023-04-25T10:11:02.262Z,96072.59
2023-04-25T10:13:34.651Z,96069.59
2023-04-25T10:16:09.525Z,96061.00
2023-04-25T10:18:40.503Z,96052.78
2023-04-25T10:21:11.754Z,96056.16
2023-04-25T10:23:43.943Z,96044.88
2023-04-25T10:26:18.221Z,96042.66
2023-04-25T10:29:02.604Z,96038.25
2023-04-25T10:31:36.974Z,96025.72
2023-04-25T10:34:09.677Z,96031.88
2023-04-25T10:36:41.531Z,96034.44
2023-04-25T10:39:12.974Z,96022.22
2023-04-25T10:41:57.891Z,96016.19
2023-04-25T10:44:32.197Z,96001.31
2023-04-25T10:47:07.125Z,96017.84
2023-04-25T10:49:39.321Z,96007.19
2023-04-25T10:52:20.139Z,96002.09
2023-04-25T10:54:52.660Z,96002.34
2023-04-25T10:57:40.342Z,95988.56
2023-04-25T11:00:17.296Z,95991.25
2023-04-25T11:02:53.123Z,95986.53
2023-04-25T11:05:28.588Z,95986.28
2023-04-25T11:08:07.193Z,95978.97
2023-04-25T11:10:39.448Z,95980.31
2023-04-25T11:13:10.277Z,95978.69
2023-04-25T11:15:41.899Z,95964.63
2023-04-25T11:18:20.653Z,95968.91
2023-04-25T11:20:52.962Z,95961.34
2023-04-25T11:23:23.782Z,95965.97
2023-04-25T11:25:54.991Z,95969.22
2023-04-25T11:28:26.929Z,95961.41
2023-04-25T11:30:58.491Z,95944.13
2023-04-25T11:33:31.824Z,95949.81
2023-04-25T11:36:03.187Z,95954.09
2023-04-25T11:38:34.024Z,95952.66
2023-04-25T11:41:04.972Z,95947.66
2023-04-25T11:43:35.982Z,95944.38
2023-04-25T11:46:11.734Z,95946.91
2023-04-25T11:48:46.847Z,95950.31
2023-04-25T11:51:17.572Z,95946.13
2023-04-25T11:53:49.267Z,95934.13
2023-04-25T11:56:20.271Z,95931.31
2023-04-25T11:59:04.998Z,95924.53
2023-04-25T12:01:37.930Z,95910.69
2023-04-25T12:04:19.499Z,95917.22
2023-04-25T12:06:52.854Z,95915.66
2023-04-25T12:09:25.487Z,95909.28
2023-04-25T12:11:59.526Z,95906.94
2023-04-25T12:14:32.152Z,95899.69
2023-04-25T12:17:05.292Z,95886.22
2023-04-25T12:19:41.956Z,95899.25
2023-04-25T12:22:25.238Z,95907.91
2023-04-25T12:24:58.167Z,95913.50
2023-04-25T12:27:31.309Z,95926.94
2023-04-25T12:30:03.170Z,95955.38
2023-04-25T12:32:39.079Z,95956.38
2023-04-25T12:35:13.226Z,95964.91
2023-04-25T12:37:44.111Z,95971.19
2023-04-25T12:40:15.838Z,95970.50
2023-04-25T12:42:46.548Z,95971.88
2023-04-25T12:45:17.605Z,95984.03
2023-04-25T12:47:48.652Z,95988.66
2023-04-25T12:50:22.143Z,95988.72
2023-04-25T12:52:53.025Z,95988.44
2023-04-25T12:55:24.159Z,95989.44
2023-04-25T12:57:54.905Z,95991.81
2023-04-25T13:00:26.166Z,95993.94
2023-04-25T13:02:57.378Z,95975.03
2023-04-25T13:05:31.700Z,95982.03
2023-04-25T13:08:02.637Z,95983.50
2023-04-25T13:10:35.190Z,95970.31
2023-04-25T13:13:06.287Z,95983.75
2023-04-25T13:15:37.076Z,95983.69
2023-04-25T13:18:08.976Z,95969.19
2023-04-25T13:20:42.397Z,95987.25
2023-04-25T13:23:13.260Z,95976.66
2023-04-25T13:25:44.235Z,95991.41
2023-04-25T13:28:15.072Z,95981.88
2023-04-25T13:30:47.091Z,95985.25
2023-04-25T13:33:18.143Z,95977.13
2023-04-25T13:35:55.275Z,95968.72
2023-04-25T13:38:26.821Z,95965.22
2023-04-25T13:40:57.822Z,95971.97
2023-04-25T13:43:28.836Z,95956.00
2023-04-25T13:45:59.961Z,95967.66
2023-04-25T13:48:31.089Z,95953.44
2023-04-25T13:51:04.439Z,95946.41
2023-04-25T13:53:35.208Z,95948.63
2023-04-25T13:56:06.149Z,95941.28
2023-04-25T13:58:37.146Z,95946.34
2023-04-25T14:01:08.234Z,95945.28
2023-04-25T14:03:39.181Z,95953.84
2023-04-25T14:06:13.844Z,95961.88
2023-04-25T14:08:44.626Z,95966.19
2023-04-25T14:11:15.366Z,95974.34
2023-04-25T14:13:46.201Z,95968.50
2023-04-25T14:16:17.270Z,95988.44
2023-04-25T14:18:48.142Z,96051.41
2023-04-25T14:21:22.266Z,96063.19
2023-04-25T14:23:53.322Z,96061.13
2023-04-25T14:26:24.516Z,96056.84
2023-04-25T14:28:55.852Z,96045.91
2023-04-25T14:31:26.650Z,96060.88
2023-04-25T14:33:59.534Z,96065.78
2023-04-25T14:36:33.524Z,96063.25
2023-04-25T14:39:04.501Z,96063.94
2023-04-25T14:41:35.303Z,96083.97
2023-04-25T14:44:06.246Z,96081.72
2023-04-25T14:46:37.098Z,96088.34
2023-04-25T14:49:09.709Z,96080.91
2023-04-25T14:51:43.094Z,96081.09
2023-04-25T14:54:14.349Z,96083.84
2023-04-25T14:56:45.141Z,96081.28
2023-04-25T14:59:15.938Z,96079.72
2023-04-25T15:01:47.171Z,96083.91
2023-04-25T15:04:18.738Z,96073.66
2023-04-25T15:06:52.414Z,96069.19
2023-04-25T15:09:25.140Z,96065.31
2023-04-25T15:34:22.303Z,96005.56
2023-04-25T15:36:53.135Z,96002.66
2023-04-25T15:39:23.966Z,95999.75
2023-04-25T15:41:54.836Z,95995.44
2023-04-25T15:47:30.530Z,95982.97
2023-04-25T15:50:05.406Z,95985.66
2023-04-25T15:52:36.870Z,95974.94
2023-04-25T15:55:09.078Z,95982.16
2023-04-25T15:57:42.287Z,95966.09
2023-04-25T16:00:15.438Z,95957.72
2023-04-25T16:02:48.665Z,95954.56
2023-04-25T16:05:22.320Z,95951.31
2023-04-25T16:07:54.100Z,95948.84
2023-04-25T16:10:25.143Z,95960.38
2023-04-25T16:12:55.938Z,95959.78
2023-04-25T16:15:26.719Z,95958.97
2023-04-25T16:17:57.520Z,95953.38
2023-04-25T16:20:31.014Z,95955.47
2023-04-25T16:23:01.797Z,95951.97
2023-04-25T16:25:32.612Z,95954.66
2023-04-25T16:28:03.247Z,95947.69
2023-04-25T16:30:33.984Z,95956.75
2023-04-25T16:33:04.844Z,95950.00
2023-04-25T16:35:39.382Z,95951.47
2023-04-25T16:38:10.214Z,95950.66
2023-04-25T16:40:41.111Z,95950.88
2023-04-25T16:43:12.032Z,95951.94
2023-04-25T16:45:42.891Z,95961.00
2023-04-25T16:48:13.676Z,95967.41
2023-04-25T16:50:47.220Z,95963.31
2023-04-25T16:53:18.154Z,95968.06
2023-04-25T16:55:49.356Z,95970.16
2023-04-25T16:58:20.113Z,95972.44
2023-04-25T17:00:51.053Z,95974.53
2023-04-25T17:03:22.338Z,95975.81
2023-04-25T17:05:57.935Z,95978.91
2023-04-25T17:08:28.484Z,95980.63
2023-04-25T17:14:09.008Z,95974.19
2023-04-25T17:22:59.369Z,95995.72
2023-04-25T17:25:30.211Z,95993.72
2023-04-25T17:31:06.067Z,95993.84
2023-04-25T17:33:36.977Z,96003.97
2023-04-25T17:36:08.714Z,96004.44
2023-04-25T17:38:42.271Z,96007.53
2023-04-25T17:41:15.345Z,96014.13
2023-04-25T17:43:46.133Z,96009.84
2023-04-25T17:46:16.966Z,96015.38
2023-04-25T17:48:47.627Z,96018.28
2023-04-25T17:51:18.507Z,96015.81
2023-04-25T17:53:52.335Z,96028.59
2023-04-25T17:56:27.119Z,96022.84
2023-04-25T17:58:59.175Z,96024.53
2023-04-25T18:01:30.628Z,96026.19
2023-04-25T18:04:01.952Z,96033.56
2023-04-25T18:06:33.187Z,96027.25
2023-04-25T18:09:16.252Z,96029.09
2023-04-25T18:11:47.671Z,96022.16
2023-04-25T18:14:21.332Z,96036.16
2023-04-25T18:16:54.275Z,96035.97
2023-04-25T18:19:25.921Z,96047.88
2023-04-25T18:21:58.963Z,96043.59
2023-04-25T18:24:32.494Z,96055.50
2023-04-25T18:27:06.327Z,96041.94
2023-04-25T18:29:37.847Z,96048.50
2023-04-25T18:32:08.981Z,96049.34
2023-04-25T18:34:41.880Z,96049.72
2023-04-25T18:37:13.978Z,96050.75
2023-04-25T18:39:47.560Z,96057.72
2023-04-25T18:42:18.563Z,96062.22
2023-04-25T18:44:50.172Z,96056.06
2023-04-25T18:47:21.479Z,96066.69
2023-04-25T18:49:52.852Z,96066.50
2023-04-25T18:52:23.965Z,96074.28
2023-04-25T18:54:58.522Z,96074.69
2023-04-25T18:57:30.205Z,96071.59
2023-04-25T19:00:05.664Z,96068.31
2023-04-25T19:02:40.197Z,96068.13
2023-04-25T19:05:13.855Z,96066.84
2023-04-25T19:07:45.492Z,96069.72
2023-04-25T19:10:19.695Z,96072.34
2023-04-25T19:12:50.923Z,96071.97
2023-04-25T19:15:22.946Z,96072.78
2023-04-25T19:17:54.412Z,96071.38
2023-04-25T19:20:26.133Z,96070.31
2023-04-25T19:22:57.458Z,96080.50
2023-04-25T19:25:31.349Z,96079.06
2023-04-25T19:28:02.614Z,96078.63
2023-04-25T19:30:34.466Z,96076.13
2023-04-25T19:33:05.859Z,96085.53
2023-04-25T19:35:37.571Z,96081.44
2023-04-25T19:38:08.856Z,96073.69
2023-04-25T19:40:43.308Z,96068.78
2023-04-25T19:43:14.864Z,96070.81
2023-04-25T19:45:46.479Z,96072.03
2023-04-25T19:48:17.878Z,96066.44
2023-04-25T19:50:49.244Z,96086.88
2023-04-25T19:53:20.020Z,96074.41
2023-04-25T19:55:53.626Z,96080.38
2023-04-25T19:58:24.323Z,96072.22
2023-04-25T20:00:56.237Z,96082.28
2023-04-25T20:03:27.819Z,96074.91
2023-04-25T20:05:58.917Z,96079.38
2023-04-25T20:08:29.644Z,96078.66
2023-04-25T20:11:03.378Z,96076.03
2023-04-25T20:13:34.414Z,96074.59
2023-04-25T20:16:05.262Z,96078.91
2023-04-25T20:18:36.072Z,96076.25
2023-04-25T20:21:08.015Z,96076.13
2023-04-25T20:23:38.719Z,96082.66
2023-04-25T20:26:12.249Z,96078.06
2023-04-25T20:28:43.016Z,96067.00
2023-04-25T20:31:14.285Z,96082.56
2023-04-25T20:33:44.978Z,96079.72
2023-04-25T20:36:15.981Z,96069.06
2023-04-25T20:38:46.631Z,96070.88
2023-04-25T20:41:20.435Z,96062.84
2023-04-25T20:43:53.479Z,96069.22
2023-04-25T20:46:24.312Z,96070.28
2023-04-25T20:48:55.110Z,96071.16
2023-04-25T20:51:26.062Z,96075.31
2023-04-25T20:53:57.174Z,96069.81
2023-04-25T20:56:30.640Z,96056.34
2023-04-25T20:59:01.618Z,96056.56
2023-04-25T21:01:32.595Z,96062.72
2023-04-25T21:04:03.702Z,96061.91
2023-04-25T21:06:34.931Z,96075.66
2023-04-25T21:09:07.426Z,96072.19
2023-04-25T21:11:41.185Z,96078.56
2023-04-25T21:14:12.106Z,96084.09
2023-04-25T21:16:43.209Z,96077.34
2023-04-25T21:19:14.051Z,96068.97
2023-04-25T21:21:44.809Z,96077.56
2023-04-25T21:24:17.489Z,96071.00
2023-04-25T21:26:51.206Z,96078.59
2023-04-25T21:29:21.991Z,96068.56
2023-04-25T21:31:53.308Z,96067.75
2023-04-25T21:34:24.090Z,96059.97
2023-04-25T21:36:54.816Z,96058.75
2023-04-25T21:39:25.647Z,96062.00
2023-04-25T21:41:58.945Z,96062.66
2023-04-25T21:44:30.615Z,96057.91
2023-04-25T21:47:01.370Z,96058.75
2023-04-25T21:49:33.151Z,96059.56
2023-04-25T21:52:03.878Z,96065.72
2023-04-25T21:54:36.741Z,96058.56
2023-04-25T21:57:11.180Z,96068.16
2023-04-25T21:59:42.063Z,96055.69
2023-04-25T22:02:13.136Z,96058.16
2023-04-25T22:04:47.651Z,96060.81
2023-04-25T22:07:18.787Z,96062.44
2023-04-25T22:09:55.061Z,96056.28
2023-04-25T22:12:29.282Z,96052.59
2023-04-25T22:15:00.046Z,96062.25
2023-04-25T22:17:31.961Z,96057.53
2023-04-25T22:20:03.231Z,96063.69
2023-04-25T22:22:34.443Z,96060.81
2023-04-25T22:25:05.116Z,96057.31
2023-04-25T22:27:41.124Z,96059.16
2023-04-25T22:30:13.679Z,96055.69
2023-04-25T22:32:45.406Z,96047.69
2023-04-25T22:35:16.293Z,96055.06
2023-04-25T22:37:47.422Z,96050.75
2023-04-25T22:40:18.401Z,96055.50
2023-04-25T22:42:52.039Z,96050.16
2023-04-25T22:45:23.031Z,96054.66
2023-04-25T22:47:53.832Z,96052.81
2023-04-25T22:50:24.843Z,96049.13
2023-04-25T22:52:55.632Z,96054.25
2023-04-25T22:55:27.213Z,96051.16
2023-04-25T22:58:00.638Z,96051.78
2023-04-25T23:00:31.444Z,96053.22
2023-04-25T23:03:04.105Z,96055.06
2023-04-25T23:05:35.116Z,96061.81
2023-04-25T23:08:06.448Z,96057.91
2023-04-25T23:10:37.352Z,96065.72
2023-04-25T23:13:10.734Z,96063.88
2023-04-25T23:15:41.898Z,96058.34
2023-04-25T23:18:12.931Z,96061.81
2023-04-25T23:20:44.043Z,96057.31
2023-04-25T23:23:15.213Z,96051.16
2023-04-25T23:25:46.505Z,96049.31
2023-04-25T23:28:19.906Z,96045.03
2023-04-25T23:30:50.712Z,96050.75
2023-04-25T23:33:21.563Z,96042.75
2023-04-25T23:35:52.368Z,96048.94
2023-04-25T23:38:23.203Z,96045.44
2023-04-25T23:40:54.141Z,96045.44
2023-04-25T23:43:27.537Z,96046.47
2023-04-25T23:45:58.429Z,96040.31
2023-04-25T23:48:29.423Z,96041.13
2023-04-25T23:51:01.188Z,96035.81
2023-04-25T23:53:32.049Z,96023.53
2023-04-25T23:56:03.266Z,96033.34
2023-04-25T23:58:36.966Z,96031.50
